createdAt,value
2023-02-04T00:00:02.580Z,29.50
2023-02-04T00:02:29.862Z,46.30
2023-02-04T00:04:57.112Z,27.30
2023-02-04T00:07:24.291Z,27.55
2023-02-04T00:09:53.772Z,24.70
2023-02-04T00:12:21.018Z,28.02
2023-02-04T00:14:48.282Z,26.50
2023-02-04T00:17:15.607Z,34.88
2023-02-04T00:19:43.133Z,24.58
2023-02-04T00:22:13.823Z,26.08
2023-02-04T00:24:43.081Z,27.48
2023-02-04T00:27:10.285Z,27.15
2023-02-04T00:29:40.086Z,33.53
2023-02-04T00:32:07.381Z,27.70
2023-02-04T00:34:36.948Z,27.90
2023-02-04T00:37:04.262Z,25.20
2023-02-04T00:39:31.649Z,30.10
2023-02-04T00:41:58.836Z,28.20
2023-02-04T00:44:26.065Z,27.13
2023-02-04T00:46:53.245Z,26.65
2023-02-04T00:49:20.409Z,35.42
2023-02-04T00:51:50.232Z,33.22
2023-02-04T00:54:17.407Z,37.35
2023-02-04T00:56:47.199Z,23.05
2023-02-04T00:59:14.816Z,30.75
2023-02-04T01:01:44.905Z,34.28
2023-02-04T01:04:12.230Z,29.27
2023-02-04T01:06:39.440Z,27.58
2023-02-04T01:09:12.804Z,36.28
2023-02-04T01:11:40.260Z,30.35
2023-02-04T01:14:07.473Z,31.30
2023-02-04T01:16:34.846Z,30.77
2023-02-04T01:19:05.080Z,32.80
2023-02-04T01:21:32.459Z,32.80
2023-02-04T01:23:59.870Z,35.65
2023-02-04T01:26:27.138Z,30.80
2023-02-04T01:28:54.352Z,37.33
2023-02-04T01:31:21.821Z,32.55
2023-02-04T01:33:49.162Z,26.77
2023-02-04T01:36:21.672Z,27.17
2023-02-04T01:38:49.432Z,31.58
2023-02-04T01:41:17.372Z,30.08
2023-02-04T01:43:44.788Z,36.95
2023-02-04T01:46:12.078Z,32.22
2023-02-04T01:48:39.300Z,24.35
2023-02-04T01:51:08.304Z,26.33
2023-02-04T01:53:35.985Z,24.50
2023-02-04T01:56:08.136Z,27.67
2023-02-04T01:58:35.421Z,27.50
2023-02-04T02:01:02.791Z,41.90
2023-02-04T02:03:30.060Z,23.17
2023-02-04T02:05:57.315Z,16.30
2023-02-04T02:08:24.553Z,22.52
2023-02-04T02:10:52.743Z,27.65
2023-02-04T02:13:20.551Z,16.83
2023-02-04T02:15:48.623Z,16.05
2023-02-04T02:18:16.541Z,22.17
2023-02-04T02:20:43.950Z,22.13
2023-02-04T02:23:20.123Z,30.27
2023-02-04T02:25:47.738Z,24.15
2023-02-04T02:28:16.777Z,19.45
2023-02-04T02:30:49.208Z,28.00
2023-02-04T02:33:17.970Z,32.50
2023-02-04T02:35:48.412Z,28.48
2023-02-04T02:38:16.841Z,18.15
2023-02-04T02:40:44.623Z,14.63
2023-02-04T02:43:16.581Z,22.17
2023-02-04T02:45:44.448Z,15.15
2023-02-04T02:48:12.195Z,23.55
2023-02-04T02:50:39.736Z,22.92
2023-02-04T02:53:11.597Z,24.65
2023-02-04T02:55:38.951Z,27.42
2023-02-04T02:58:06.900Z,24.27
2023-02-04T03:00:34.421Z,24.23
2023-02-04T03:03:07.907Z,31.77
2023-02-04T03:05:37.720Z,20.70
2023-02-04T03:08:05.296Z,31.98
2023-02-04T03:10:33.118Z,21.60
2023-02-04T03:13:00.786Z,19.00
2023-02-04T03:15:28.146Z,26.02
2023-02-04T03:17:58.490Z,18.80
2023-02-04T03:20:26.478Z,31.23
2023-02-04T03:22:53.958Z,31.10
2023-02-04T03:25:24.568Z,24.98
2023-02-04T03:27:54.177Z,19.00
2023-02-04T03:30:21.980Z,27.27
2023-02-04T03:32:49.663Z,20.10
2023-02-04T03:35:16.977Z,26.67
2023-02-04T03:37:44.232Z,22.05
2023-02-04T03:40:12.113Z,17.45
2023-02-04T03:42:39.394Z,24.05
2023-02-04T03:45:06.804Z,26.55
2023-02-04T03:47:34.143Z,19.70
2023-02-04T03:50:01.470Z,23.08
2023-02-04T03:52:28.795Z,24.38
2023-02-04T03:54:56.087Z,27.80
2023-02-04T03:57:23.362Z,30.05
2023-02-04T03:59:50.635Z,25.38
2023-02-04T04:02:17.848Z,35.85
2023-02-04T04:04:45.109Z,22.98
2023-02-04T04:07:12.371Z,17.25
2023-02-04T04:09:39.610Z,35.40
2023-02-04T04:12:06.920Z,25.00
2023-02-04T04:14:34.257Z,38.53
2023-02-04T04:17:01.484Z,33.33
2023-02-04T04:19:28.797Z,22.67
2023-02-04T04:21:56.106Z,38.67
2023-02-04T04:24:23.335Z,33.40
2023-02-04T04:26:50.527Z,33.40
2023-02-04T04:29:17.858Z,29.90
2023-02-04T04:31:45.182Z,20.75
2023-02-04T04:34:12.494Z,20.17
2023-02-04T04:36:39.786Z,39.42
2023-02-04T04:39:07.041Z,43.85
2023-02-04T04:41:34.227Z,25.95
2023-02-04T04:44:01.678Z,36.63
2023-02-04T04:46:28.942Z,36.40
2023-02-04T04:48:56.210Z,32.85
2023-02-04T04:51:23.574Z,21.65
2023-02-04T04:53:50.853Z,36.03
2023-02-04T04:56:19.278Z,27.48
2023-02-04T04:58:46.499Z,26.98
2023-02-04T05:01:13.818Z,26.35
2023-02-04T05:03:41.220Z,37.72
2023-02-04T05:06:09.444Z,37.20
2023-02-04T05:08:36.660Z,37.30
2023-02-04T05:11:04.521Z,33.25
2023-02-04T05:13:31.726Z,37.35
2023-02-04T05:15:59.208Z,23.92
2023-02-04T05:18:26.479Z,40.63
2023-02-04T05:20:53.760Z,44.92
2023-02-04T05:23:21.023Z,44.15
2023-02-04T05:25:48.261Z,28.00
2023-02-04T05:28:15.473Z,41.35
2023-02-04T05:30:42.809Z,29.13
2023-02-04T05:33:10.209Z,26.33
2023-02-04T05:35:37.418Z,47.90
2023-02-04T05:38:04.712Z,26.27
2023-02-04T05:40:32.226Z,28.85
2023-02-04T05:42:59.605Z,30.65
2023-02-04T05:45:26.834Z,51.75
2023-02-04T05:47:54.157Z,35.15
2023-02-04T05:50:21.432Z,57.25
2023-02-04T05:52:48.680Z,44.47
2023-02-04T05:55:15.908Z,64.38
2023-02-04T05:57:43.207Z,63.10
2023-02-04T06:00:12.297Z,36.67
2023-02-04T06:02:39.652Z,54.75
2023-02-04T06:05:07.207Z,42.60
2023-02-04T06:07:34.419Z,49.00
2023-02-04T06:10:01.695Z,65.47
2023-02-04T06:12:29.063Z,46.15
2023-02-04T06:14:56.428Z,42.53
2023-02-04T06:17:23.765Z,53.78
2023-02-04T06:19:51.050Z,66.65
2023-02-04T06:22:18.399Z,52.25
2023-02-04T06:24:47.402Z,63.35
2023-02-04T06:27:14.949Z,46.67
2023-02-04T06:29:42.192Z,31.10
2023-02-04T06:32:09.406Z,56.22
2023-02-04T06:34:38.987Z,38.90
2023-02-04T06:37:06.257Z,64.75
2023-02-04T06:39:33.529Z,55.17
2023-02-04T06:42:00.777Z,51.85
2023-02-04T06:44:28.198Z,53.50
2023-02-04T06:46:55.428Z,30.67
2023-02-04T06:49:23.965Z,58.17
2023-02-04T06:51:51.488Z,57.42
2023-02-04T06:54:19.169Z,57.92
2023-02-04T06:56:46.923Z,60.83
2023-02-04T06:59:14.251Z,47.38
2023-02-04T07:01:41.524Z,28.77
2023-02-04T07:04:08.814Z,58.42
2023-02-04T07:06:36.088Z,31.08
2023-02-04T07:09:03.438Z,46.20
2023-02-04T07:11:30.727Z,46.05
2023-02-04T07:13:58.073Z,39.03
2023-02-04T07:16:25.360Z,25.92
2023-02-04T07:18:52.803Z,19.30
2023-02-04T07:21:20.158Z,26.08
2023-02-04T07:23:48.124Z,43.15
2023-02-04T07:26:15.490Z,54.03
2023-02-04T07:28:43.607Z,29.17
2023-02-04T07:31:10.983Z,36.55
2023-02-04T07:33:38.297Z,38.90
2023-02-04T07:36:05.677Z,53.35
2023-02-04T07:38:32.977Z,47.67
2023-02-04T07:41:00.280Z,21.15
2023-02-04T07:43:27.693Z,25.58
2023-02-04T07:45:55.030Z,32.22
2023-02-04T07:48:22.306Z,40.45
2023-02-04T07:50:49.587Z,26.52
2023-02-04T07:53:16.785Z,31.02
2023-02-04T07:55:44.714Z,36.78
2023-02-04T07:58:11.973Z,20.92
2023-02-04T08:00:39.259Z,29.67
2023-02-04T08:03:06.595Z,56.38
2023-02-04T08:05:33.933Z,65.38
2023-02-04T08:08:02.103Z,34.13
2023-02-04T08:10:29.576Z,34.88
2023-02-04T08:12:57.168Z,31.67
2023-02-04T08:15:24.427Z,35.22
2023-02-04T08:17:51.689Z,40.22
2023-02-04T08:20:19.008Z,27.55
2023-02-04T08:22:48.536Z,21.83
2023-02-04T08:25:15.937Z,19.05
2023-02-04T08:27:43.362Z,15.20
2023-02-04T08:30:10.953Z,26.65
2023-02-04T08:32:39.400Z,19.67
2023-02-04T08:35:09.201Z,17.13
2023-02-04T08:37:36.500Z,26.52
2023-02-04T08:40:06.646Z,45.95
2023-02-04T08:42:34.914Z,26.63
2023-02-04T08:45:02.408Z,27.83
2023-02-04T08:47:29.650Z,37.15
2023-02-04T08:49:56.885Z,48.83
2023-02-04T08:52:26.652Z,8.43
2023-02-04T08:54:53.945Z,10.45
2023-02-04T08:57:24.337Z,12.82
2023-02-04T08:59:51.560Z,13.35
2023-02-04T09:02:18.868Z,107.75
2023-02-04T09:04:46.142Z,66.03
2023-02-04T09:07:13.382Z,72.18
2023-02-04T09:09:42.828Z,109.03
2023-02-04T09:12:10.143Z,75.95
2023-02-04T09:14:37.458Z,102.40
2023-02-04T09:17:06.022Z,82.78
2023-02-04T09:19:33.401Z,46.92
2023-02-04T09:22:00.704Z,11.77
2023-02-04T09:24:28.246Z,27.92
2023-02-04T09:26:55.619Z,13.55
2023-02-04T09:29:22.988Z,17.25
2023-02-04T09:31:50.469Z,20.52
2023-02-04T09:34:17.862Z,16.27
2023-02-04T09:36:45.148Z,17.67
2023-02-04T09:39:12.521Z,7.80
2023-02-04T09:41:40.862Z,22.58
2023-02-04T09:44:15.484Z,13.73
2023-02-04T09:46:45.522Z,10.77
2023-02-04T09:49:14.009Z,16.65
2023-02-04T09:51:42.102Z,7.28
2023-02-04T09:54:13.975Z,9.93
2023-02-04T09:56:41.485Z,8.13
2023-02-04T09:59:13.313Z,6.80
2023-02-04T10:01:40.970Z,20.70
2023-02-04T10:04:13.145Z,5.70
2023-02-04T10:06:40.968Z,6.43
2023-02-04T10:09:10.452Z,6.97
2023-02-04T10:11:38.853Z,5.43
2023-02-04T10:14:15.213Z,5.22
2023-02-04T10:16:43.738Z,4.22
2023-02-04T10:19:15.046Z,5.57
2023-02-04T10:21:43.685Z,6.13
2023-02-04T10:24:22.777Z,5.47
2023-02-04T10:26:50.030Z,6.65
2023-02-04T10:29:18.582Z,7.53
2023-02-04T10:31:47.284Z,4.72
2023-02-04T10:34:18.415Z,4.65
2023-02-04T10:36:47.451Z,4.82
2023-02-04T10:39:14.768Z,8.05
2023-02-04T10:41:46.288Z,4.22
2023-02-04T10:44:15.224Z,5.10
2023-02-04T10:46:42.704Z,5.25
2023-02-04T10:49:18.183Z,4.10
2023-02-04T10:51:45.569Z,6.47
2023-02-04T10:54:32.027Z,4.30
2023-02-04T10:57:00.740Z,2.90
2023-02-04T10:59:29.111Z,4.53
2023-02-04T11:01:57.818Z,4.63
2023-02-04T11:04:25.544Z,6.75
2023-02-04T11:06:53.231Z,7.72
2023-02-04T11:09:20.722Z,5.65
2023-02-04T11:11:49.365Z,4.95
2023-02-04T11:14:24.194Z,5.63
2023-02-04T11:16:51.592Z,7.47
2023-02-04T11:19:31.413Z,4.22
2023-02-04T11:22:05.717Z,3.90
2023-02-04T11:24:34.443Z,2.53
2023-02-04T11:27:19.871Z,3.00
2023-02-04T11:29:48.066Z,3.92
2023-02-04T11:32:30.722Z,3.60
2023-02-04T11:35:18.222Z,3.13
2023-02-04T11:37:46.281Z,3.13
2023-02-04T11:40:32.208Z,3.15
2023-02-04T11:42:59.495Z,2.80
2023-02-04T11:45:36.585Z,2.65
2023-02-04T11:48:10.245Z,2.50
2023-02-04T11:50:41.752Z,2.38
2023-02-04T11:53:12.635Z,2.70
2023-02-04T11:55:47.633Z,2.80
2023-02-04T11:58:16.517Z,2.88
2023-02-04T12:00:44.683Z,4.45
2023-02-04T12:03:26.081Z,4.50
2023-02-04T12:05:56.786Z,4.82
2023-02-04T12:08:24.075Z,3.67
2023-02-04T12:10:52.369Z,2.65
2023-02-04T12:13:24.464Z,2.75
2023-02-04T12:16:08.296Z,2.50
2023-02-04T12:18:35.871Z,3.63
2023-02-04T12:21:04.525Z,2.20
2023-02-04T12:23:32.133Z,3.70
2023-02-04T12:25:59.478Z,3.22
2023-02-04T12:28:28.122Z,3.63
2023-02-04T12:30:56.001Z,2.85
2023-02-04T12:33:23.721Z,3.05
2023-02-04T12:35:50.985Z,3.80
2023-02-04T12:38:20.398Z,3.67
2023-02-04T12:40:47.885Z,10.25
2023-02-04T12:43:15.174Z,2.58
2023-02-04T12:45:45.866Z,4.93
2023-02-04T12:48:14.239Z,2.97
2023-02-04T12:50:41.748Z,2.83
2023-02-04T12:53:09.051Z,2.45
2023-02-04T12:55:36.553Z,3.70
2023-02-04T12:58:03.940Z,5.07
2023-02-04T13:00:31.257Z,3.35
2023-02-04T13:03:01.316Z,2.88
2023-02-04T13:05:28.676Z,3.33
2023-02-04T13:07:56.136Z,3.05
2023-02-04T13:10:24.108Z,2.70
2023-02-04T13:12:51.901Z,2.67
2023-02-04T13:15:19.693Z,3.65
2023-02-04T13:17:47.014Z,3.90
2023-02-04T13:20:14.459Z,2.20
2023-02-04T13:22:41.777Z,2.38
2023-02-04T13:25:11.598Z,2.50
2023-02-04T13:27:39.984Z,3.30
2023-02-04T13:30:08.187Z,2.38
2023-02-04T13:32:35.758Z,3.15
2023-02-04T13:35:03.049Z,7.32
2023-02-04T13:37:30.521Z,2.92
2023-02-04T13:39:57.772Z,4.03
2023-02-04T13:42:25.144Z,2.58
2023-02-04T13:44:52.591Z,3.33
2023-02-04T13:47:19.965Z,2.63
2023-02-04T13:49:47.538Z,4.68
2023-02-04T13:52:15.074Z,2.35
2023-02-04T13:54:42.377Z,3.40
2023-02-04T13:57:09.651Z,3.90
2023-02-04T13:59:36.916Z,3.53
2023-02-04T14:02:04.249Z,3.33
2023-02-04T14:04:31.532Z,2.83
2023-02-04T14:06:58.877Z,4.35
2023-02-04T14:09:26.786Z,2.58
2023-02-04T14:11:54.040Z,4.35
2023-02-04T14:14:21.320Z,6.03
2023-02-04T14:16:48.735Z,3.38
2023-02-04T14:19:16.151Z,2.83
2023-02-04T14:21:43.469Z,4.05
2023-02-04T14:24:10.830Z,3.00
2023-02-04T14:26:38.163Z,3.35
2023-02-04T14:29:07.170Z,5.00
2023-02-04T14:31:36.676Z,4.00
2023-02-04T14:34:04.077Z,3.03
2023-02-04T14:36:31.446Z,8.23
2023-02-04T14:38:58.709Z,5.38
2023-02-04T14:41:26.535Z,7.53
2023-02-04T14:43:54.810Z,5.18
2023-02-04T14:46:22.156Z,5.43
2023-02-04T14:48:52.067Z,2.83
2023-02-04T14:51:19.732Z,6.25
2023-02-04T14:53:48.716Z,4.28
2023-02-04T14:56:16.229Z,3.78
2023-02-04T14:58:43.488Z,4.80
2023-02-04T15:01:10.796Z,4.53
2023-02-04T15:03:38.284Z,4.03
2023-02-04T15:06:05.711Z,4.32
2023-02-04T15:08:33.003Z,4.35
2023-02-04T15:11:00.660Z,4.13
2023-02-04T15:13:29.397Z,2.95
2023-02-04T15:15:56.623Z,3.08
2023-02-04T15:18:24.099Z,2.85
2023-02-04T15:20:51.315Z,3.72
2023-02-04T15:23:18.614Z,2.80
2023-02-04T15:25:47.262Z,4.03
2023-02-04T15:28:14.668Z,3.03
2023-02-04T15:30:42.108Z,3.72
2023-02-04T15:33:09.669Z,3.70
2023-02-04T15:35:36.945Z,4.03
2023-02-04T15:38:04.204Z,2.95
2023-02-04T15:40:31.950Z,4.03
2023-02-04T15:42:59.368Z,5.68
2023-02-04T15:45:26.601Z,5.05
2023-02-04T15:47:53.910Z,4.97
2023-02-04T15:50:21.206Z,4.55
2023-02-04T15:52:48.506Z,4.65
2023-02-04T15:55:15.802Z,7.30
2023-02-04T15:57:43.021Z,4.93
2023-02-04T16:00:10.604Z,8.77
2023-02-04T16:02:37.972Z,6.10
2023-02-04T16:05:06.045Z,6.15
2023-02-04T16:07:33.279Z,9.38
2023-02-04T16:10:00.559Z,6.47
2023-02-04T16:12:29.548Z,4.65
2023-02-04T16:14:56.811Z,8.75
2023-02-04T16:17:24.141Z,8.38
2023-02-04T16:19:51.377Z,5.65
2023-02-04T16:22:19.600Z,8.07
2023-02-04T16:24:46.903Z,7.50
2023-02-04T16:27:14.227Z,8.68
2023-02-04T16:29:41.474Z,9.85
2023-02-04T16:32:08.855Z,13.70
2023-02-04T16:34:36.247Z,11.93
2023-02-04T16:37:03.488Z,11.90
2023-02-04T16:39:30.793Z,9.48
2023-02-04T16:41:58.079Z,14.05
2023-02-04T16:44:25.349Z,9.35
2023-02-04T16:46:52.734Z,9.65
2023-02-04T16:49:20.033Z,10.48
2023-02-04T16:51:47.316Z,8.82
2023-02-04T16:54:14.625Z,8.85
2023-02-04T16:56:41.950Z,6.55
2023-02-04T16:59:09.253Z,10.98
2023-02-04T17:01:36.852Z,7.45
2023-02-04T17:07:48.273Z,14.03
2023-02-04T17:10:15.623Z,12.80
2023-02-04T17:12:42.887Z,10.80
2023-02-04T17:15:10.318Z,7.15
2023-02-04T17:17:38.733Z,10.88
2023-02-04T17:20:06.101Z,8.43
2023-02-04T17:22:33.375Z,9.60
2023-02-04T17:25:00.614Z,10.65
2023-02-04T17:27:27.882Z,8.98
2023-02-04T17:29:55.138Z,11.90
2023-02-04T17:32:22.418Z,8.70
2023-02-04T17:34:50.867Z,12.82
2023-02-04T17:37:18.122Z,9.63
2023-02-04T17:39:45.358Z,10.27
2023-02-04T17:42:12.605Z,8.52
2023-02-04T17:44:39.941Z,10.55
2023-02-04T17:47:07.275Z,12.63
2023-02-04T17:49:35.134Z,7.63
2023-02-04T17:52:02.485Z,12.55
2023-02-04T17:54:29.875Z,11.80
2023-02-04T17:56:58.077Z,8.98
2023-02-04T17:59:26.113Z,11.75
2023-02-04T18:01:54.198Z,11.80
2023-02-04T18:04:21.729Z,9.15
2023-02-04T18:06:50.940Z,12.27
2023-02-04T18:09:18.862Z,9.23
2023-02-04T18:11:46.223Z,6.97
2023-02-04T18:14:15.555Z,8.68
2023-02-04T18:16:43.180Z,11.43
2023-02-04T18:19:28.172Z,13.02
2023-02-04T18:21:56.046Z,11.63
2023-02-04T18:24:35.976Z,10.93
2023-02-04T18:27:09.869Z,11.02
2023-02-04T18:29:38.097Z,8.65
2023-02-04T18:32:13.005Z,9.32
2023-02-04T18:34:41.919Z,9.95
2023-02-04T18:37:24.368Z,9.73
2023-02-04T18:39:51.655Z,8.75
2023-02-04T18:42:22.859Z,8.48
2023-02-04T18:44:50.279Z,7.25
2023-02-04T18:47:27.602Z,10.05
2023-02-04T18:49:54.931Z,8.63
2023-02-04T18:52:22.669Z,8.20
2023-02-04T18:55:39.883Z,13.75
2023-02-04T18:58:29.421Z,11.30
2023-02-04T19:00:59.627Z,9.23
2023-02-04T19:03:28.821Z,10.68
2023-02-04T19:05:57.413Z,11.05
2023-02-04T19:08:27.764Z,11.18
2023-02-04T19:10:56.545Z,9.63
2023-02-04T19:13:33.007Z,13.30
2023-02-04T19:16:03.650Z,11.77
2023-02-04T19:18:34.072Z,11.50
2023-02-04T19:21:08.632Z,13.95
2023-02-04T19:23:37.887Z,9.50
2023-02-04T19:26:22.519Z,12.52
2023-02-04T19:28:51.332Z,15.63
2023-02-04T19:31:18.855Z,16.55
2023-02-04T19:33:46.150Z,18.48
2023-02-04T19:36:42.725Z,18.75
2023-02-04T19:39:19.259Z,13.40
2023-02-04T19:41:50.910Z,14.15
2023-02-04T19:44:41.153Z,16.17
2023-02-04T19:47:20.635Z,11.25
2023-02-04T19:49:47.900Z,14.60
2023-02-04T19:52:29.986Z,11.60
2023-02-04T19:55:01.131Z,16.48
2023-02-04T19:57:29.242Z,19.88
2023-02-04T19:59:56.990Z,17.33
2023-02-04T20:02:35.766Z,14.15
2023-02-04T20:05:14.349Z,13.98
2023-02-04T20:07:41.646Z,18.15
2023-02-04T20:10:08.993Z,16.65
2023-02-04T20:12:36.770Z,18.48
2023-02-04T20:15:17.677Z,18.02
2023-02-04T20:17:49.225Z,12.30
2023-02-04T20:20:16.437Z,18.27
2023-02-04T20:22:48.342Z,17.73
2023-02-04T20:25:21.886Z,18.45
2023-02-04T20:27:55.346Z,20.88
2023-02-04T20:30:26.410Z,20.13
2023-02-04T20:32:57.621Z,19.95
2023-02-04T20:35:34.076Z,18.88
2023-02-04T20:38:08.762Z,21.55
2023-02-04T20:40:36.745Z,20.17
2023-02-04T20:43:07.109Z,20.65
2023-02-04T20:45:39.178Z,20.88
2023-02-04T20:48:27.398Z,17.90
2023-02-04T20:50:56.505Z,19.45
2023-02-04T20:53:25.798Z,21.13
2023-02-04T20:56:03.963Z,22.40
2023-02-04T20:58:38.582Z,20.38
2023-02-04T21:01:18.155Z,20.55
2023-02-04T21:03:46.004Z,25.55
2023-02-04T21:06:35.245Z,21.90
2023-02-04T21:09:04.443Z,19.65
2023-02-04T21:11:31.656Z,18.88
2023-02-04T21:13:59.139Z,23.92
2023-02-04T21:16:26.353Z,20.90
2023-02-04T21:18:54.793Z,22.65
2023-02-04T21:21:24.601Z,26.02
2023-02-04T21:23:51.949Z,22.67
2023-02-04T21:26:19.247Z,21.52
2023-02-04T21:28:46.558Z,21.48
2023-02-04T21:31:14.021Z,23.98
2023-02-04T21:33:41.453Z,20.50
2023-02-04T21:36:09.098Z,18.58
2023-02-04T21:38:36.331Z,21.60
2023-02-04T21:41:03.649Z,24.92
2023-02-04T21:43:30.957Z,19.60
2023-02-04T21:45:58.363Z,18.42
2023-02-04T21:48:25.858Z,23.17
2023-02-04T21:50:54.140Z,30.42
2023-02-04T21:53:21.485Z,27.23
2023-02-04T21:55:48.920Z,23.45
2023-02-04T21:58:16.187Z,24.35
2023-02-04T22:00:43.552Z,28.27
2023-02-04T22:03:15.808Z,28.60
2023-02-04T22:05:43.559Z,22.23
2023-02-04T22:08:13.803Z,25.35
2023-02-04T22:10:41.271Z,24.73
2023-02-04T22:13:30.368Z,28.33
2023-02-04T22:16:00.398Z,25.17
2023-02-04T22:18:28.391Z,25.38
2023-02-04T22:20:56.940Z,27.92
2023-02-04T22:23:24.247Z,27.23
2023-02-04T22:25:51.570Z,29.38
2023-02-04T22:28:19.007Z,27.80
2023-02-04T22:30:46.370Z,27.20
2023-02-04T22:33:14.243Z,30.85
2023-02-04T22:35:41.570Z,28.10
2023-02-04T22:38:09.087Z,29.70
2023-02-04T22:40:45.110Z,31.90
2023-02-04T22:43:12.378Z,36.55
2023-02-04T22:45:39.739Z,45.33
2023-02-04T22:48:07.221Z,46.58
2023-02-04T22:50:34.548Z,58.92
2023-02-04T22:53:01.766Z,74.88
2023-02-04T22:55:29.061Z,61.10
2023-02-04T22:57:57.453Z,55.50
2023-02-04T23:00:24.847Z,70.05
2023-02-04T23:02:52.233Z,51.88
2023-02-04T23:05:19.410Z,71.10
2023-02-04T23:07:46.748Z,42.60
2023-02-04T23:10:18.809Z,41.38
2023-02-04T23:12:46.114Z,34.88
2023-02-04T23:15:13.427Z,51.60
2023-02-04T23:17:40.858Z,71.88
2023-02-04T23:20:10.972Z,99.22
2023-02-04T23:22:38.394Z,97.82
2023-02-04T23:25:06.647Z,82.38
2023-02-04T23:27:34.139Z,107.20
2023-02-04T23:30:04.633Z,79.40
2023-02-04T23:32:32.166Z,84.47
2023-02-04T23:34:59.611Z,100.90
2023-02-04T23:37:26.896Z,101.30
2023-02-04T23:40:03.789Z,74.60
2023-02-04T23:42:36.725Z,122.82
2023-02-04T23:45:04.184Z,249.52
2023-02-04T23:47:31.479Z,131.13
2023-02-04T23:50:08.989Z,296.55
2023-02-04T23:52:44.765Z,96.63
2023-02-04T23:55:12.179Z,111.43
2023-02-04T23:57:39.413Z,87.53
